Broek in Waterland, Netherlands
Current Conditions -  °F | °C
As of 11:25 PM on Sunday 23 Nov 2014 (Local Time) from EHAM Reporting Station
Drizzle Drizzle  
Wind Chill: 50°   Ceiling: 900
Heat Index: 50°   Visibility: 4mi
Dew Point: 48°   Wind: 10mph
Humidity: 94%   Direction: 330°NNW
Pressure: 30"   Gusts: NA
Location:  52.43°N, 5°E
Report Text: EHAM 232225Z 33009KT 300V020 6000 -DZ FEW005 BKN009 BKN01510/09 Q1016 BECMG 8000 SCT015
Loading
Personal Weather Stations






























Interactive Weather Map New forecast layout! Learn more

10-Day Weather Forecast

Advertisements
Track Severe Weather on mobile